weather.gov     
National Weather Service

Terminal Aerodrome Forecast
NWS Homepage
This page is being discontinued on March 12, 2014.
The same data is available at this site. Please update your bookmarks.
Thank you, and we apologize for the inconvenience.
Please send an email to SR-SRH.Webmaster@noaa.gov with any concerns.


Current Version
Previous Version:    01  02  03  04  05  06  07  08  09  10  11  12  13  14  15  16  17  18  19  20  21  22  23  24  25  26  27  28  29  30  
   31  32  33  
[Printable]
899
FTUS46 KEKA 241740
TAFCEC
TAF
KCEC 241740Z 2418/2518 12004KT P6SM SCT035 OVC060
     FM242100 16008KT P6SM -DZ FEW025 BKN035 OVC050
     FM250300 14004KT 6SM BR VCSH SCT007 OVC025
     FM250800 10003KT 5SM BR SCT007 BKN015
     FM251600 12004KT 6SM BR SCT007 BKN015=


899
FTUS46 KEKA 241740
TAFCEC
TAF
KCEC 241740Z 2418/2518 12004KT P6SM SCT035 OVC060
     FM242100 16008KT P6SM -DZ FEW025 BKN035 OVC050
     FM250300 14004KT 6SM BR VCSH SCT007 OVC025
     FM250800 10003KT 5SM BR SCT007 BKN015
     FM251600 12004KT 6SM BR SCT007 BKN015=




U.S. Dept. of Commerce
NOAA National Weather Service
1325 East West Highway
Silver Spring, MD 20910
E-mail: w-nws.webmaster@noaa.gov
Page last modified: May 16, 2007
NATIONAL WEATHER SERVICE: for Safety, for Work, for Fun - FOR LIFE